Time;durP1;ratioP1;P1;durP2;ratioP2;P2;SDS_P1;SDS_P2;PMS_P1;PMS_P2;Temp;Humidity;BMP_temperature;BMP_pressure;BME280_temperature;BME280_humidity;BME280_pressure;Samples;Min_cycle;Max_cycle;Signal;HPM_P1;HPM_P2
2023/03/21 00:01:04;;;;;;;14.75;4.45;;;6.10;99.90;;;;;;5023101;28;20043;-82
2023/03/21 00:03:31;;;;;;;8.52;4.60;;;6.10;99.90;;;;;;5021188;28;20538;-82
2023/03/21 00:05:57;;;;;;;9.27;4.63;;;6.10;99.90;;;;;;5038483;28;20079;-82
2023/03/21 00:08:24;;;;;;;8.73;4.15;;;6.00;99.90;;;;;;5022649;28;20037;-83
2023/03/21 00:10:58;;;;;;;11.90;4.68;;;5.80;99.90;;;;;;5021701;28;20476;-83
2023/03/21 00:13:25;;;;;;;14.50;4.55;;;5.70;99.90;;;;;;5022144;28;20036;-83
2023/03/21 00:15:53;;;;;;;9.57;4.30;;;5.40;99.90;;;;;;5038601;28;20060;-83
2023/03/21 00:18:24;;;;;;;7.93;4.22;;;5.30;99.90;;;;;;5037094;28;20111;-83
2023/03/21 00:21:01;;;;;;;8.68;4.75;;;5.10;99.90;;;;;;5020182;28;20039;-82
2023/03/21 00:23:30;;;;;;;10.15;4.55;;;5.00;99.90;;;;;;5027699;28;20037;-83
2023/03/21 00:25:56;;;;;;;9.80;4.70;;;4.90;99.90;;;;;;5038753;28;20091;-83
2023/03/21 00:28:22;;;;;;;9.52;4.95;;;4.80;99.90;;;;;;5038698;28;20482;-82
2023/03/21 00:30:48;;;;;;;8.63;4.80;;;4.80;99.90;;;;;;5023564;28;20503;-82
2023/03/21 00:33:14;;;;;;;9.88;4.85;;;4.80;99.90;;;;;;5022221;28;20068;-82
2023/03/21 00:35:46;;;;;;;14.95;4.95;;;4.80;99.90;;;;;;5021448;28;20458;-82
2023/03/21 00:38:13;;;;;;;9.20;5.13;;;4.90;99.90;;;;;;5021744;28;20555;-82
2023/03/21 00:40:38;;;;;;;11.07;4.80;;;4.90;99.90;;;;;;5021488;28;20029;-82
2023/03/21 00:43:04;;;;;;;10.15;5.57;;;5.00;99.90;;;;;;5021550;28;20658;-83
2023/03/21 00:45:31;;;;;;;12.18;5.55;;;5.00;99.90;;;;;;5018655;28;20377;-82
2023/03/21 00:48:00;;;;;;;17.77;6.35;;;5.10;99.90;;;;;;5035002;28;20202;-82
2023/03/21 00:50:51;;;;;;;9.13;5.85;;;5.20;99.90;;;;;;5021214;28;20392;-82
2023/03/21 00:53:17;;;;;;;16.35;6.68;;;5.20;99.90;;;;;;5018902;28;20163;-82
2023/03/21 00:56:17;;;;;;;18.45;7.80;;;5.20;99.90;;;;;;5034687;28;20506;-82
2023/03/21 00:58:42;;;;;;;28.88;11.73;;;5.20;99.90;;;;;;5016513;28;20527;-83
2023/03/21 01:01:08;;;;;;;34.17;12.55;;;5.30;99.90;;;;;;5019920;28;20052;-83
2023/03/21 01:03:41;;;;;;;53.20;19.10;;;5.30;99.90;;;;;;5055610;28;20083;-82
2023/03/21 01:06:12;;;;;;;65.78;22.80;;;5.40;99.90;;;;;;5020785;28;20032;-83
2023/03/21 01:08:42;;;;;;;59.38;23.42;;;5.40;99.90;;;;;;5021127;28;20036;-82
2023/03/21 01:11:12;;;;;;;40.92;15.75;;;5.40;99.90;;;;;;5019721;28;20472;-83
2023/03/21 01:13:38;;;;;;;30.20;11.35;;;5.50;99.90;;;;;;5032609;28;20511;-82
2023/03/21 01:16:06;;;;;;;20.58;8.65;;;5.50;99.90;;;;;;5021709;28;20506;-83
2023/03/21 01:18:33;;;;;;;12.52;6.72;;;5.60;99.90;;;;;;5037503;28;20033;-82
2023/03/21 01:21:00;;;;;;;13.45;7.05;;;5.60;99.90;;;;;;5017805;28;20767;-82
2023/03/21 01:23:27;;;;;;;17.00;6.35;;;5.60;99.90;;;;;;5020675;28;20033;-83
2023/03/21 01:25:55;;;;;;;8.27;5.10;;;5.70;99.90;;;;;;5017948;28;20055;-82
2023/03/21 01:28:21;;;;;;;11.50;5.80;;;5.70;99.90;;;;;;5048612;28;20036;-83
2023/03/21 01:30:49;;;;;;;12.32;5.25;;;5.70;99.90;;;;;;5016670;28;20037;-82
2023/03/21 01:33:16;;;;;;;14.00;5.28;;;5.70;99.90;;;;;;5037021;28;20029;-83
2023/03/21 01:35:42;;;;;;;13.38;5.75;;;5.80;99.90;;;;;;5021231;28;20714;-82
2023/03/21 01:38:08;;;;;;;16.30;5.82;;;5.80;99.90;;;;;;5018959;28;20033;-82
2023/03/21 01:40:36;;;;;;;13.50;5.55;;;5.80;99.90;;;;;;5036771;28;20021;-83
2023/03/21 01:43:32;;;;;;;12.73;6.07;;;5.90;99.90;;;;;;5019626;28;20468;-83
2023/03/21 01:46:04;;;;;;;13.32;6.47;;;5.90;99.90;;;;;;5037187;28;20029;-82
2023/03/21 01:49:01;;;;;;;10.50;6.20;;;5.90;99.90;;;;;;5034080;28;20448;-83
2023/03/21 01:51:27;;;;;;;11.75;5.65;;;5.90;99.90;;;;;;5031434;28;20041;-82
2023/03/21 01:53:56;;;;;;;10.50;5.93;;;5.90;99.90;;;;;;5021208;28;20281;-83
2023/03/21 01:56:36;;;;;;;10.35;5.97;;;5.90;99.90;;;;;;5019825;28;20492;-83
2023/03/21 01:59:35;;;;;;;14.32;6.10;;;5.80;99.90;;;;;;5018170;28;20037;-82
2023/03/21 02:02:24;;;;;;;9.43;6.18;;;5.80;99.90;;;;;;5053436;28;20045;-83
2023/03/21 02:05:22;;;;;;;12.25;6.40;;;5.90;99.90;;;;;;5036268;28;20373;-82
2023/03/21 02:07:51;;;;;;;12.13;6.45;;;5.90;99.90;;;;;;5020217;28;20029;-83
2023/03/21 02:10:18;;;;;;;9.73;5.90;;;5.90;99.90;;;;;;5020361;28;20029;-83
2023/03/21 02:12:48;;;;;;;9.67;5.57;;;5.90;99.90;;;;;;5040585;28;20119;-83
2023/03/21 02:15:15;;;;;;;13.38;6.80;;;5.90;99.90;;;;;;5020611;28;20135;-83
2023/03/21 02:18:26;;;;;;;14.55;7.22;;;5.80;99.90;;;;;;5022102;28;20021;-82
2023/03/21 02:21:17;;;;;;;14.98;7.22;;;5.80;99.90;;;;;;5020166;28;20029;-83
2023/03/21 02:24:45;;;;;;;12.82;6.25;;;5.80;99.90;;;;;;5036975;28;20084;-82
2023/03/21 02:27:24;;;;;;;9.50;6.50;;;5.70;99.90;;;;;;4956133;28;20031;-82
2023/03/21 02:30:16;;;;;;;10.02;6.20;;;5.70;99.90;;;;;;5011462;28;20040;-83
2023/03/21 02:33:08;;;;;;;24.70;8.35;;;5.70;99.90;;;;;;5014750;28;20036;-82
2023/03/21 02:35:59;;;;;;;13.32;8.27;;;5.70;99.90;;;;;;5019682;28;20424;-82
2023/03/21 02:38:44;;;;;;;17.90;8.52;;;5.70;99.90;;;;;;5036492;28;20029;-83
2023/03/21 02:41:35;;;;;;;12.05;7.38;;;5.70;99.90;;;;;;5018611;28;20009;-83
2023/03/21 02:44:10;;;;;;;14.40;7.57;;;5.70;99.90;;;;;;5036199;28;20039;-82
2023/03/21 02:46:50;;;;;;;16.05;8.68;;;5.60;99.90;;;;;;5019958;28;20116;-83
2023/03/21 02:49:25;;;;;;;19.20;8.60;;;5.60;99.90;;;;;;5019395;28;20052;-82
2023/03/21 02:51:51;;;;;;;15.85;8.57;;;5.60;99.90;;;;;;5018697;28;20068;-82
2023/03/21 02:54:22;;;;;;;12.70;8.60;;;5.50;99.90;;;;;;5035453;28;20364;-82
2023/03/21 02:56:51;;;;;;;24.65;10.18;;;5.60;99.90;;;;;;5019586;28;20025;-82
2023/03/21 02:59:19;;;;;;;17.30;8.05;;;5.60;99.90;;;;;;5019056;28;20039;-83
2023/03/21 03:01:46;;;;;;;18.33;7.97;;;5.60;99.90;;;;;;5035675;28;20148;-83
2023/03/21 03:04:22;;;;;;;18.77;8.63;;;5.70;99.90;;;;;;5017222;28;20124;-83
2023/03/21 03:07:25;;;;;;;20.13;8.73;;;5.60;99.90;;;;;;5030858;28;20159;-82
2023/03/21 03:10:14;;;;;;;19.58;8.10;;;5.70;99.90;;;;;;5018907;28;20302;-83
2023/03/21 03:12:45;;;;;;;15.55;8.95;;;5.70;99.90;;;;;;5011800;28;20076;-82
2023/03/21 03:15:20;;;;;;;18.35;8.23;;;5.70;99.90;;;;;;5035696;28;20579;-83
2023/03/21 03:17:54;;;;;;;17.58;8.00;;;5.70;99.90;;;;;;5019036;28;20035;-83
2023/03/21 03:20:38;;;;;;;12.25;7.45;;;5.70;99.90;;;;;;5015416;28;20049;-83
2023/03/21 03:23:24;;;;;;;11.75;7.30;;;5.70;99.90;;;;;;5049679;28;20029;-82
2023/03/21 03:26:07;;;;;;;10.15;7.18;;;5.70;99.90;;;;;;5018740;28;20043;-82
2023/03/21 03:28:40;;;;;;;14.50;8.30;;;5.70;99.90;;;;;;5034782;28;20033;-83
2023/03/21 03:31:15;;;;;;;15.35;8.13;;;5.70;99.90;;;;;;5018366;28;20550;-82
2023/03/21 03:33:50;;;;;;;17.63;8.25;;;5.70;99.90;;;;;;5018730;28;20134;-83
2023/03/21 03:36:26;;;;;;;11.82;7.07;;;5.70;99.90;;;;;;5018617;28;20115;-82
2023/03/21 03:38:53;;;;;;;12.25;6.43;;;5.70;99.90;;;;;;5018692;28;20025;-82
2023/03/21 03:41:27;;;;;;;16.42;7.75;;;5.70;99.90;;;;;;5034942;28;20040;-83
2023/03/21 03:44:00;;;;;;;16.85;7.40;;;5.60;99.90;;;;;;5019333;28;20403;-82
2023/03/21 03:46:32;;;;;;;16.20;7.00;;;5.60;99.90;;;;;;5035059;28;20120;-83
2023/03/21 03:49:06;;;;;;;14.60;7.82;;;5.60;99.90;;;;;;5031872;28;20387;-83
2023/03/21 03:51:49;;;;;;;13.20;7.78;;;5.60;99.90;;;;;;5034633;28;20079;-82
2023/03/21 03:54:36;;;;;;;16.38;7.90;;;5.60;99.90;;;;;;5012978;28;20025;-82
2023/03/21 03:57:12;;;;;;;14.98;7.75;;;5.60;99.90;;;;;;5018257;28;20131;-82
2023/03/21 03:59:41;;;;;;;12.95;7.30;;;5.60;99.90;;;;;;5017971;28;20357;-82
2023/03/21 04:02:30;;;;;;;17.77;7.60;;;5.50;99.90;;;;;;5043223;28;20071;-83
2023/03/21 04:05:00;;;;;;;18.20;7.57;;;5.50;99.90;;;;;;5034317;28;20020;-83
2023/03/21 04:07:26;;;;;;;17.88;8.00;;;5.50;99.90;;;;;;5035093;28;20041;-83
2023/03/21 04:10:14;;;;;;;11.30;6.65;;;5.40;99.90;;;;;;5035163;28;20033;-83
2023/03/21 04:12:41;;;;;;;12.88;6.57;;;5.50;99.90;;;;;;5041691;28;20079;-83
2023/03/21 04:15:12;;;;;;;11.27;6.10;;;5.50;99.90;;;;;;5035901;28;20491;-83
2023/03/21 04:17:44;;;;;;;17.05;7.55;;;5.50;99.90;;;;;;5019065;28;20029;-83
2023/03/21 04:20:11;;;;;;;14.48;6.53;;;5.50;99.90;;;;;;5016045;28;20041;-82
2023/03/21 04:22:37;;;;;;;11.43;6.75;;;5.50;99.90;;;;;;5017415;28;20025;-82
2023/03/21 04:25:04;;;;;;;13.05;6.63;;;5.60;99.90;;;;;;5034151;28;20399;-83
2023/03/21 04:27:32;;;;;;;12.80;6.22;;;5.60;99.90;;;;;;5018088;28;20032;-83
2023/03/21 04:30:20;;;;;;;15.73;7.90;;;5.60;99.90;;;;;;5037112;28;20037;-83
2023/03/21 04:32:55;;;;;;;14.90;7.30;;;5.70;99.90;;;;;;5014720;28;20025;-83
2023/03/21 04:35:23;;;;;;;15.45;8.20;;;5.80;99.90;;;;;;5016110;28;20056;-83
2023/03/21 04:37:49;;;;;;;13.48;7.63;;;5.80;99.90;;;;;;5034517;28;20412;-83
2023/03/21 04:40:17;;;;;;;12.57;8.20;;;5.70;99.90;;;;;;5018370;28;20235;-83
2023/03/21 04:42:44;;;;;;;15.50;8.27;;;5.70;99.90;;;;;;5021950;28;20052;-82
2023/03/21 04:45:11;;;;;;;16.95;8.15;;;5.70;99.90;;;;;;5022236;28;20059;-83
2023/03/21 04:47:40;;;;;;;14.70;8.30;;;5.70;99.90;;;;;;5038817;28;20471;-83
2023/03/21 04:50:06;;;;;;;16.75;8.27;;;5.60;99.90;;;;;;5021905;28;20028;-83
2023/03/21 04:52:32;;;;;;;16.23;7.90;;;5.60;99.90;;;;;;5021303;28;20510;-82
2023/03/21 04:54:58;;;;;;;18.73;8.25;;;5.60;99.90;;;;;;5021396;28;20108;-83
2023/03/21 04:57:23;;;;;;;10.30;6.90;;;5.60;99.90;;;;;;5021672;28;20017;-83
2023/03/21 04:59:49;;;;;;;20.13;8.23;;;5.70;99.90;;;;;;5021598;28;20743;-83
2023/03/21 05:02:27;;;;;;;17.10;7.68;;;5.70;99.90;;;;;;5021275;28;20120;-82
2023/03/21 05:04:53;;;;;;;16.02;8.00;;;5.70;99.90;;;;;;5034026;28;20103;-83
2023/03/21 05:07:19;;;;;;;16.60;8.18;;;5.60;99.90;;;;;;5020861;28;20476;-83
2023/03/21 05:09:45;;;;;;;18.98;7.90;;;5.70;99.90;;;;;;5021480;28;20052;-83
2023/03/21 05:12:11;;;;;;;17.13;7.60;;;5.70;99.90;;;;;;5020029;28;20036;-83
2023/03/21 05:14:37;;;;;;;16.45;7.78;;;5.60;99.90;;;;;;5021175;28;20025;-83
2023/03/21 05:17:04;;;;;;;11.85;6.85;;;5.60;99.90;;;;;;5019672;28;20025;-83
2023/03/21 05:19:34;;;;;;;16.60;7.00;;;5.60;99.90;;;;;;5022133;28;20025;-83
2023/03/21 05:22:08;;;;;;;12.38;7.47;;;5.60;99.90;;;;;;5037801;28;20425;-83
2023/03/21 05:24:38;;;;;;;19.88;9.23;;;5.60;99.90;;;;;;5038455;28;20040;-83
2023/03/21 05:27:05;;;;;;;17.02;7.63;;;5.60;99.90;;;;;;5018628;28;20097;-83
2023/03/21 05:29:38;;;;;;;16.77;7.97;;;5.60;99.90;;;;;;5036652;28;20037;-83
2023/03/21 05:32:05;;;;;;;16.20;7.43;;;5.60;99.90;;;;;;5020736;28;20029;-83
2023/03/21 05:34:56;;;;;;;10.80;6.70;;;5.60;99.90;;;;;;5017876;28;20036;-83
2023/03/21 05:37:23;;;;;;;20.23;8.10;;;5.60;99.90;;;;;;5017976;28;20056;-83
2023/03/21 05:39:50;;;;;;;17.63;7.90;;;5.70;99.90;;;;;;5017429;28;20271;-83
2023/03/21 05:42:22;;;;;;;17.35;8.57;;;5.70;99.90;;;;;;5037461;28;20028;-83
2023/03/21 05:44:48;;;;;;;12.40;7.60;;;5.80;99.90;;;;;;5044751;28;20514;-83
2023/03/21 05:47:16;;;;;;;17.45;8.80;;;5.80;99.90;;;;;;5020231;28;20120;-83
2023/03/21 05:49:48;;;;;;;17.13;7.95;;;5.90;99.90;;;;;;5043507;28;20036;-83
2023/03/21 05:52:15;;;;;;;17.75;9.25;;;6.00;99.90;;;;;;5018585;28;20658;-83
2023/03/21 05:54:41;;;;;;;19.65;9.35;;;6.10;99.90;;;;;;5037115;28;20025;-83
2023/03/21 05:57:53;;;;;;;22.80;10.23;;;6.10;99.90;;;;;;5020008;28;20679;-83
2023/03/21 06:00:24;;;;;;;16.88;10.05;;;6.20;99.90;;;;;;5036829;28;20021;-83
2023/03/21 06:03:14;;;;;;;16.00;9.35;;;6.30;99.90;;;;;;5022565;28;20029;-83
2023/03/21 06:06:07;;;;;;;19.55;10.13;;;6.40;99.90;;;;;;5030145;28;20068;-83
2023/03/21 06:08:37;;;;;;;17.80;8.73;;;6.50;99.90;;;;;;5017171;28;20044;-83
2023/03/21 06:11:10;;;;;;;18.38;7.97;;;6.50;99.90;;;;;;5034897;28;20029;-83
2023/03/21 06:13:36;;;;;;;16.48;8.43;;;6.60;99.90;;;;;;5036644;28;20086;-83
2023/03/21 06:16:41;;;;;;;15.93;9.38;;;6.70;99.90;;;;;;5036123;28;20025;-83
2023/03/21 06:19:07;;;;;;;16.50;8.65;;;6.70;99.90;;;;;;5036528;28;20029;-83
2023/03/21 06:21:48;;;;;;;17.15;8.50;;;6.80;99.90;;;;;;5016450;28;20026;-83
2023/03/21 06:24:16;;;;;;;19.27;9.63;;;6.80;99.90;;;;;;5020099;28;20048;-83
2023/03/21 06:26:43;;;;;;;14.93;9.32;;;6.80;99.90;;;;;;5036811;28;20476;-83
2023/03/21 06:29:31;;;;;;;16.08;9.10;;;6.90;99.90;;;;;;5036066;28;20471;-83
2023/03/21 06:31:56;;;;;;;16.48;8.45;;;6.70;99.90;;;;;;5019030;28;20044;-83
2023/03/21 06:34:22;;;;;;;23.80;9.60;;;6.60;99.90;;;;;;5020114;28;20024;-83
2023/03/21 06:36:50;;;;;;;19.38;9.77;;;6.40;99.90;;;;;;5019535;28;20064;-83
2023/03/21 06:39:17;;;;;;;17.08;9.98;;;6.30;99.90;;;;;;5020038;28;20024;-83
2023/03/21 06:41:44;;;;;;;23.65;9.60;;;6.20;99.90;;;;;;5036187;28;20025;-83
2023/03/21 06:44:10;;;;;;;21.27;10.63;;;6.10;99.90;;;;;;5019246;28;20025;-83
2023/03/21 06:46:44;;;;;;;26.60;11.57;;;6.00;99.90;;;;;;5035852;28;20024;-83
2023/03/21 06:49:11;;;;;;;26.00;11.23;;;6.00;99.90;;;;;;5019563;28;20017;-82
2023/03/21 06:51:37;;;;;;;18.75;10.25;;;6.00;99.90;;;;;;5002259;28;20499;-81
2023/03/21 06:54:39;;;;;;;18.05;10.93;;;6.10;99.90;;;;;;5021058;28;20638;-83
2023/03/21 06:57:14;;;;;;;23.95;11.70;;;6.30;99.90;;;;;;5035048;28;20024;-82
2023/03/21 06:59:40;;;;;;;21.33;10.80;;;6.40;99.90;;;;;;5019278;28;20029;-83
2023/03/21 07:02:13;;;;;;;23.30;11.27;;;6.50;99.90;;;;;;5020290;28;20029;-83
2023/03/21 07:04:55;;;;;;;16.33;10.45;;;6.60;99.90;;;;;;5021319;28;20036;-82
2023/03/21 07:07:25;;;;;;;24.08;10.35;;;6.90;99.90;;;;;;5009821;28;20040;-82
2023/03/21 07:09:51;;;;;;;19.33;11.98;;;6.90;99.90;;;;;;5017514;28;20032;-82
2023/03/21 07:12:17;;;;;;;19.98;10.77;;;7.10;99.90;;;;;;5018684;28;20460;-83
2023/03/21 07:15:05;;;;;;;22.90;10.70;;;7.20;99.90;;;;;;5035933;28;20838;-83
2023/03/21 07:17:32;;;;;;;20.90;11.45;;;7.40;99.90;;;;;;5035264;28;20039;-82
2023/03/21 07:19:58;;;;;;;19.67;10.82;;;7.50;99.90;;;;;;5018388;28;20032;-82
2023/03/21 07:22:24;;;;;;;22.55;11.85;;;7.70;99.90;;;;;;5034517;28;20488;-83
2023/03/21 07:24:49;;;;;;;21.20;10.55;;;7.90;99.90;;;;;;5015025;28;20040;-83
2023/03/21 07:27:16;;;;;;;22.13;11.93;;;8.10;99.90;;;;;;5034193;28;20032;-83
2023/03/21 07:30:15;;;;;;;21.60;10.85;;;8.40;99.90;;;;;;5015358;28;20037;-82
2023/03/21 07:32:41;;;;;;;23.35;10.45;;;8.60;99.90;;;;;;5034034;28;20555;-83
2023/03/21 07:35:12;;;;;;;18.63;10.68;;;8.50;99.90;;;;;;5034995;28;20040;-83
2023/03/21 07:37:39;;;;;;;20.77;10.07;;;8.50;99.90;;;;;;5018600;28;20036;-82
2023/03/21 07:40:12;;;;;;;19.88;9.35;;;8.40;99.90;;;;;;5018209;28;20029;-83
2023/03/21 07:42:39;;;;;;;21.50;10.10;;;8.30;99.90;;;;;;5015415;28;20030;-82
2023/03/21 07:45:08;;;;;;;18.40;10.30;;;8.20;99.90;;;;;;5034799;28;20029;-83
2023/03/21 07:47:34;;;;;;;30.25;11.18;;;8.10;99.90;;;;;;5016049;28;20040;-82
2023/03/21 07:50:05;;;;;;;15.40;9.50;;;8.00;99.90;;;;;;5046851;28;20030;-82
2023/03/21 07:52:31;;;;;;;22.60;9.63;;;8.00;99.90;;;;;;5029251;28;20033;-82
2023/03/21 07:54:57;;;;;;;16.98;8.90;;;8.10;99.90;;;;;;5018450;28;20387;-82
2023/03/21 07:57:23;;;;;;;20.65;8.57;;;8.20;99.90;;;;;;5017899;28;20029;-82
2023/03/21 07:59:49;;;;;;;16.08;8.27;;;8.30;99.90;;;;;;5039262;28;20065;-83
2023/03/21 08:02:16;;;;;;;19.90;7.97;;;8.30;99.90;;;;;;5019062;28;20029;-83
2023/03/21 08:04:42;;;;;;;14.40;7.93;;;8.30;99.90;;;;;;5035530;28;20499;-83
2023/03/21 08:07:08;;;;;;;12.85;6.93;;;8.40;99.90;;;;;;5035020;28;20443;-83
2023/03/21 08:09:34;;;;;;;18.45;6.95;;;8.60;99.90;;;;;;5037462;28;20029;-83
2023/03/21 08:11:59;;;;;;;16.10;6.40;;;8.70;99.90;;;;;;5035045;28;20051;-83
2023/03/21 08:14:25;;;;;;;12.60;5.30;;;8.80;99.90;;;;;;5034769;28;20041;-83
2023/03/21 08:16:51;;;;;;;13.55;5.88;;;9.00;99.90;;;;;;5056103;28;20060;-82
2023/03/21 08:19:45;;;;;;;13.45;5.53;;;9.10;99.90;;;;;;5022564;28;20472;-82
2023/03/21 08:22:11;;;;;;;13.00;4.93;;;9.20;99.90;;;;;;5020518;28;20112;-83
2023/03/21 08:24:36;;;;;;;9.38;4.55;;;9.30;99.90;;;;;;5022731;28;20083;-83
2023/03/21 08:27:02;;;;;;;9.73;4.50;;;9.40;99.90;;;;;;5038438;28;20112;-82
2023/03/21 08:29:28;;;;;;;14.70;6.30;;;9.50;99.90;;;;;;5021552;28;20083;-83
2023/03/21 08:31:54;;;;;;;19.90;5.63;;;9.50;99.90;;;;;;5021866;28;20064;-84
2023/03/21 08:34:21;;;;;;;11.68;6.18;;;9.60;99.90;;;;;;5056083;28;20021;-83
2023/03/21 08:36:47;;;;;;;12.23;5.15;;;9.70;99.90;;;;;;5045966;28;20067;-83
2023/03/21 08:39:13;;;;;;;18.27;5.63;;;9.80;99.90;;;;;;5038654;28;20037;-83
2023/03/21 08:41:39;;;;;;;10.63;4.45;;;9.90;99.90;;;;;;5021659;28;20033;-83
2023/03/21 08:44:05;;;;;;;13.73;6.63;;;10.10;99.90;;;;;;5038963;28;20048;-83
2023/03/21 08:46:32;;;;;;;14.75;5.22;;;10.30;99.90;;;;;;5038200;28;20025;-83
2023/03/21 08:48:58;;;;;;;13.23;4.78;;;11.10;99.90;;;;;;5038448;28;20078;-82
2023/03/21 08:51:23;;;;;;;8.35;4.85;;;12.60;99.90;;;;;;5021381;28;20131;-83
2023/03/21 08:53:52;;;;;;;19.77;7.15;;;14.10;99.90;;;;;;5021520;28;20092;-83
2023/03/21 08:56:18;;;;;;;18.92;5.70;;;15.40;99.90;;;;;;5021715;28;20049;-83
2023/03/21 08:58:44;;;;;;;14.93;4.97;;;16.30;99.90;;;;;;5021697;28;20479;-83
2023/03/21 09:01:14;;;;;;;8.55;4.90;;;17.10;99.90;;;;;;5037878;28;20387;-83
2023/03/21 09:03:40;;;;;;;7.93;3.70;;;17.70;99.90;;;;;;5038356;28;20176;-84
2023/03/21 09:06:09;;;;;;;11.60;4.38;;;18.00;99.10;;;;;;5021953;28;20479;-83
2023/03/21 09:08:36;;;;;;;13.13;5.05;;;16.90;98.60;;;;;;5037948;28;20036;-84
2023/03/21 09:11:02;;;;;;;13.80;5.72;;;16.80;99.90;;;;;;5020861;28;20048;-83
2023/03/21 09:13:27;;;;;;;15.10;7.22;;;16.80;99.90;;;;;;5021045;28;20033;-83
2023/03/21 09:15:54;;;;;;;13.80;4.47;;;16.40;99.40;;;;;;5037717;28;20105;-83
2023/03/21 09:18:21;;;;;;;20.33;5.22;;;16.40;99.90;;;;;;5038375;28;20382;-83
2023/03/21 09:20:49;;;;;;;13.73;5.03;;;16.60;99.90;;;;;;5042718;28;20022;-83
2023/03/21 09:23:15;;;;;;;19.33;4.45;;;16.60;99.90;;;;;;5037540;28;20107;-84
2023/03/21 09:25:43;;;;;;;10.45;3.95;;;16.50;99.70;;;;;;5038124;28;20044;-84
2023/03/21 09:28:10;;;;;;;10.05;4.13;;;16.60;99.90;;;;;;5036284;28;20025;-84
2023/03/21 09:30:36;;;;;;;6.88;3.90;;;16.20;99.90;;;;;;5020682;28;20510;-83
2023/03/21 09:33:07;;;;;;;7.80;4.25;;;16.00;99.90;;;;;;5020173;28;20037;-84
2023/03/21 09:35:33;;;;;;;7.25;4.15;;;15.80;99.90;;;;;;5021080;28;20128;-83
2023/03/21 09:38:00;;;;;;;13.20;4.13;;;15.60;99.90;;;;;;5037183;28;20079;-84
2023/03/21 09:40:48;;;;;;;14.90;6.35;;;15.40;99.90;;;;;;5020650;28;20044;-84
2023/03/21 09:43:50;;;;;;;9.15;4.20;;;15.60;99.90;;;;;;5020625;28;20043;-83
2023/03/21 09:46:29;;;;;;;12.10;4.68;;;15.30;99.90;;;;;;5036014;28;20060;-83
2023/03/21 09:49:37;;;;;;;9.20;4.30;;;15.10;99.90;;;;;;5037111;28;20029;-83
2023/03/21 09:52:19;;;;;;;14.65;6.45;;;15.00;99.90;;;;;;5038694;28;20444;-83
2023/03/21 09:54:45;;;;;;;16.98;6.15;;;15.50;99.90;;;;;;5037510;28;20139;-83
2023/03/21 09:57:23;;;;;;;10.27;4.95;;;15.80;99.90;;;;;;5021381;28;20029;-83
2023/03/21 09:59:53;;;;;;;19.35;4.80;;;15.90;99.90;;;;;;5037285;28;20043;-83
2023/03/21 10:02:31;;;;;;;8.82;4.50;;;15.60;99.90;;;;;;5019806;28;20033;-83
2023/03/21 10:04:59;;;;;;;20.08;5.50;;;15.40;99.90;;;;;;5037343;28;20025;-83
2023/03/21 10:07:29;;;;;;;15.73;4.13;;;15.20;99.90;;;;;;5037168;28;20017;-83
2023/03/21 10:09:58;;;;;;;22.23;5.03;;;14.50;99.90;;;;;;5036834;28;20025;-84
2023/03/21 10:12:29;;;;;;;13.23;4.50;;;14.60;99.90;;;;;;5054387;28;20037;-83
2023/03/21 10:14:57;;;;;;;12.70;5.20;;;14.80;99.90;;;;;;5016506;28;20785;-83
2023/03/21 10:17:43;;;;;;;14.50;3.88;;;15.00;99.90;;;;;;5016952;28;20040;-83
2023/03/21 10:20:20;;;;;;;10.57;4.28;;;15.00;99.90;;;;;;5036582;28;20440;-83
2023/03/21 10:22:48;;;;;;;18.98;4.75;;;14.70;99.90;;;;;;5020169;28;20419;-83
2023/03/21 10:25:18;;;;;;;12.90;4.90;;;14.60;99.90;;;;;;5018263;28;20029;-84
2023/03/21 10:27:49;;;;;;;11.63;4.68;;;14.70;99.90;;;;;;5036851;28;20460;-83
2023/03/21 10:30:36;;;;;;;13.75;4.28;;;14.80;99.90;;;;;;5018643;28;20037;-83
2023/03/21 10:33:25;;;;;;;16.00;5.05;;;14.40;99.90;;;;;;5032494;28;20041;-83
2023/03/21 10:35:55;;;;;;;10.98;3.47;;;13.90;99.90;;;;;;5040183;28;20049;-83
2023/03/21 10:38:23;;;;;;;10.10;3.67;;;13.40;99.90;;;;;;5056028;28;20037;-84
2023/03/21 10:40:49;;;;;;;16.38;3.92;;;13.30;99.90;;;;;;5049170;28;20021;-84
2023/03/21 10:43:18;;;;;;;12.25;3.53;;;13.30;99.90;;;;;;5053495;28;20029;-83
2023/03/21 10:45:47;;;;;;;8.18;4.25;;;13.20;99.90;;;;;;5016131;28;20029;-84
2023/03/21 10:48:14;;;;;;;8.60;3.90;;;13.30;99.90;;;;;;5034661;28;20044;-84
2023/03/21 10:50:41;;;;;;;7.45;3.40;;;13.40;99.90;;;;;;5016462;28;20044;-83
2023/03/21 10:53:19;;;;;;;8.00;3.63;;;13.50;99.90;;;;;;5020591;28;20036;-84
2023/03/21 10:55:49;;;;;;;7.43;3.70;;;13.50;99.90;;;;;;5039407;28;20024;-83
2023/03/21 10:58:24;;;;;;;10.95;3.33;;;13.60;99.90;;;;;;5020863;28;20025;-84
2023/03/21 11:00:56;;;;;;;6.35;3.45;;;13.70;99.90;;;;;;5037048;28;20029;-84
2023/03/21 11:03:42;;;;;;;9.40;3.88;;;13.50;99.90;;;;;;5019519;28;20124;-84
2023/03/21 11:06:13;;;;;;;9.85;3.88;;;13.30;99.90;;;;;;5040243;28;20028;-84
2023/03/21 11:08:59;;;;;;;5.57;3.42;;;13.50;99.90;;;;;;5035559;28;20032;-84
2023/03/21 11:11:32;;;;;;;10.35;4.38;;;13.60;99.90;;;;;;5037833;28;20546;-84
2023/03/21 11:14:00;;;;;;;6.85;3.80;;;13.80;99.90;;;;;;5035887;28;20163;-84
2023/03/21 11:16:44;;;;;;;9.85;4.72;;;13.30;99.90;;;;;;5019173;28;20021;-84
2023/03/21 11:19:16;;;;;;;18.73;7.25;;;13.40;99.90;;;;;;5035961;28;20558;-83
2023/03/21 11:21:43;;;;;;;47.00;24.88;;;13.40;99.90;;;;;;5036059;28;20021;-84
2023/03/21 11:24:15;;;;;;;13.63;8.00;;;13.40;99.90;;;;;;5035565;28;20479;-84
2023/03/21 11:26:43;;;;;;;25.77;12.68;;;13.30;99.90;;;;;;5055291;28;20027;-83
2023/03/21 11:29:29;;;;;;;15.95;6.13;;;13.40;99.90;;;;;;5021184;28;20060;-83
2023/03/21 11:32:33;;;;;;;6.13;4.50;;;13.80;99.90;;;;;;5037679;28;20041;-83
2023/03/21 11:35:01;;;;;;;14.80;6.43;;;14.20;99.90;;;;;;5035320;28;20079;-83
2023/03/21 11:37:29;;;;;;;10.07;5.75;;;14.50;99.90;;;;;;5036690;28;20020;-84
2023/03/21 11:40:06;;;;;;;11.70;7.20;;;14.10;99.90;;;;;;5042850;28;20021;-84
2023/03/21 11:42:41;;;;;;;21.33;11.77;;;13.90;99.90;;;;;;5032247;28;20044;-83
2023/03/21 11:45:28;;;;;;;24.95;15.43;;;13.70;99.90;;;;;;5038847;28;20053;-84
2023/03/21 11:47:56;;;;;;;8.60;4.63;;;13.70;99.90;;;;;;5019232;28;20052;-83
2023/03/21 11:50:25;;;;;;;11.68;4.97;;;13.50;99.90;;;;;;5017958;28;20119;-82
2023/03/21 11:53:29;;;;;;;11.35;3.70;;;13.30;99.90;;;;;;5019100;28;20032;-83
2023/03/21 11:56:24;;;;;;;16.05;3.85;;;13.70;99.90;;;;;;5014367;28;20072;-83
2023/03/21 11:59:17;;;;;;;7.10;3.80;;;13.80;99.90;;;;;;4993786;28;20488;-83
2023/03/21 12:01:50;;;;;;;10.95;4.22;;;13.50;99.90;;;;;;5033189;28;20025;-83
2023/03/21 12:04:39;;;;;;;9.95;5.53;;;13.30;99.90;;;;;;5047447;28;20040;-84
2023/03/21 12:07:30;;;;;;;8.90;4.82;;;13.20;99.90;;;;;;5015046;28;20042;-83
2023/03/21 12:10:10;;;;;;;8.07;3.28;;;13.00;99.90;;;;;;5018705;28;20025;-84
2023/03/21 12:12:48;;;;;;;11.48;5.15;;;13.40;99.90;;;;;;5018493;28;20432;-84
2023/03/21 12:15:25;;;;;;;8.30;4.18;;;13.40;99.90;;;;;;5019099;28;20445;-84
2023/03/21 12:18:00;;;;;;;9.32;4.07;;;13.00;99.90;;;;;;5018484;28;20072;-83
2023/03/21 12:20:42;;;;;;;8.13;3.58;;;12.90;99.90;;;;;;5034778;28;20043;-83
2023/03/21 12:23:14;;;;;;;13.93;3.97;;;12.90;99.90;;;;;;5048433;28;20036;-83
2023/03/21 12:25:43;;;;;;;7.65;3.88;;;12.90;99.90;;;;;;5039826;28;20746;-83
2023/03/21 12:28:24;;;;;;;9.45;3.60;;;13.20;99.90;;;;;;5035126;28;20487;-84
2023/03/21 12:30:54;;;;;;;8.13;3.67;;;13.40;99.90;;;;;;5037451;28;20124;-83
2023/03/21 12:33:38;;;;;;;8.32;3.53;;;13.60;99.90;;;;;;5049066;28;20374;-83
2023/03/21 12:36:29;;;;;;;8.57;3.70;;;13.80;99.90;;;;;;5015480;28;20024;-83
2023/03/21 12:39:01;;;;;;;;;;;13.90;99.90;;;;;;5020357;28;20028;-83
2023/03/21 12:42:03;;;;;;;9.10;3.63;;;14.10;99.90;;;;;;5018343;28;19931;-84
2023/03/21 12:44:31;;;;;;;;;;;14.20;99.90;;;;;;5017878;28;20044;-83
2023/03/21 12:47:06;;;;;;;12.32;3.60;;;14.20;99.90;;;;;;5018338;28;20574;-83
2023/03/21 12:49:44;;;;;;;10.73;4.22;;;14.20;99.90;;;;;;5034630;28;20040;-84
2023/03/21 12:52:15;;;;;;;8.70;3.50;;;14.10;99.90;;;;;;5034017;28;20048;-84
2023/03/21 12:54:58;;;;;;;8.90;3.58;;;13.70;99.90;;;;;;5018244;28;20113;-83
2023/03/21 12:58:12;;;;;;;6.75;4.38;;;13.30;99.90;;;;;;5033451;28;20033;-83
2023/03/21 13:01:27;;;;;;;6.55;3.60;;;12.90;99.90;;;;;;4972061;28;20438;-83
2023/03/21 13:04:24;;;;;;;9.43;3.88;;;12.70;99.90;;;;;;4982516;28;20394;-83
2023/03/21 13:06:52;;;;;;;7.95;4.72;;;12.50;99.90;;;;;;5056121;28;20016;-83
2023/03/21 13:09:27;;;;;;;6.05;3.40;;;12.50;99.90;;;;;;5043067;28;20380;-83
2023/03/21 13:11:58;;;;;;;7.13;3.30;;;12.50;99.90;;;;;;5055392;28;20037;-83
2023/03/21 13:14:29;;;;;;;6.97;3.77;;;12.60;99.90;;;;;;5021001;28;20037;-83
2023/03/21 13:17:05;;;;;;;6.53;3.30;;;12.80;99.90;;;;;;5038105;28;20365;-84
2023/03/21 13:19:37;;;;;;;5.93;2.88;;;13.10;99.90;;;;;;5037410;28;20120;-83